createdAt,value
2018-12-10T00:00:36.505Z,0.00
2018-12-10T00:01:36.534Z,0.00
2018-12-10T00:02:36.633Z,0.00
2018-12-10T00:03:36.608Z,0.00
2018-12-10T00:04:36.641Z,0.00
2018-12-10T00:05:36.700Z,0.00
2018-12-10T00:06:36.715Z,0.00
2018-12-10T00:07:36.751Z,0.00
2018-12-10T00:08:36.788Z,0.00
2018-12-10T00:09:36.823Z,0.00
2018-12-10T00:10:41.573Z,0.00
2018-12-10T00:11:36.897Z,0.00
2018-12-10T00:12:36.933Z,0.00
2018-12-10T00:13:36.978Z,0.00
2018-12-10T00:14:37.013Z,0.00
2018-12-10T00:15:37.043Z,0.00
2018-12-10T00:16:37.076Z,0.00
2018-12-10T00:17:37.112Z,0.00
2018-12-10T00:18:37.387Z,0.00
2018-12-10T00:19:37.340Z,0.00
2018-12-10T00:20:37.232Z,0.00
2018-12-10T00:21:37.257Z,0.00
2018-12-10T00:22:37.292Z,0.00
2018-12-10T00:23:37.328Z,0.00
2018-12-10T00:24:37.364Z,0.00
2018-12-10T00:25:37.401Z,0.00
2018-12-10T00:26:37.452Z,0.00
2018-12-10T00:27:37.535Z,0.00
2018-12-10T00:28:37.518Z,0.00
2018-12-10T00:29:37.553Z,0.00
2018-12-10T00:30:37.584Z,0.00
2018-12-10T00:31:37.622Z,0.00
2018-12-10T00:32:37.656Z,0.00
2018-12-10T00:33:37.693Z,0.00
2018-12-10T00:34:37.728Z,0.00
2018-12-10T00:35:37.763Z,0.00
2018-12-10T00:36:37.806Z,0.00
2018-12-10T00:37:37.851Z,0.00
2018-12-10T00:38:37.875Z,0.00
2018-12-10T00:39:37.910Z,0.00
2018-12-10T00:40:37.943Z,0.00
2018-12-10T00:41:37.980Z,0.00
2018-12-10T00:42:38.015Z,0.00
2018-12-10T00:43:38.058Z,0.00
2018-12-10T00:44:38.087Z,0.00
2018-12-10T00:45:38.130Z,0.00
2018-12-10T00:46:38.160Z,0.00
2018-12-10T00:47:38.204Z,0.00
2018-12-10T00:48:38.233Z,0.00
2018-12-10T00:49:38.270Z,0.00
2018-12-10T00:50:38.313Z,0.00
2018-12-10T00:51:38.343Z,0.00
2018-12-10T00:52:38.377Z,0.00
2018-12-10T00:53:38.413Z,0.00
2018-12-10T00:54:38.456Z,0.00
2018-12-10T00:55:38.486Z,0.00
2018-12-10T00:56:38.520Z,0.00
2018-12-10T00:57:38.557Z,0.00
2018-12-10T00:58:38.593Z,0.00
2018-12-10T00:59:38.630Z,0.00
2018-12-10T01:00:38.669Z,0.00
2018-12-10T01:01:38.701Z,0.00
2018-12-10T01:02:38.738Z,0.00
2018-12-10T01:03:38.779Z,0.00
2018-12-10T01:04:38.809Z,0.00
2018-12-10T01:05:38.848Z,0.00
2018-12-10T01:06:38.885Z,0.00
2018-12-10T01:07:38.921Z,0.00
2018-12-10T01:08:38.960Z,0.00
2018-12-10T01:09:39.059Z,0.00
2018-12-10T01:10:39.036Z,0.00
2018-12-10T01:11:39.065Z,0.00
2018-12-10T01:12:39.108Z,0.00
2018-12-10T01:13:39.136Z,0.00
2018-12-10T01:14:39.174Z,0.00
2018-12-10T01:15:39.209Z,0.00
2018-12-10T01:16:39.244Z,0.00
2018-12-10T01:17:39.285Z,0.00
2018-12-10T01:18:39.316Z,0.00
2018-12-10T01:19:39.354Z,0.00
2018-12-10T01:20:39.389Z,0.00
2018-12-10T01:21:39.424Z,0.00
2018-12-10T01:22:39.489Z,0.00
2018-12-10T01:23:39.501Z,0.00
2018-12-10T01:24:39.533Z,0.00
2018-12-10T01:25:39.568Z,0.00
2018-12-10T01:26:39.614Z,0.00
2018-12-10T01:27:39.642Z,0.00
2018-12-10T01:28:39.676Z,0.00
2018-12-10T01:29:39.714Z,0.00
2018-12-10T01:30:39.752Z,0.00
2018-12-10T01:31:39.797Z,0.00
2018-12-10T01:32:39.822Z,0.00
2018-12-10T01:33:39.857Z,0.00
2018-12-10T01:34:39.894Z,0.00
2018-12-10T01:35:39.929Z,0.00
2018-12-10T01:36:39.965Z,0.00
2018-12-10T01:37:40.001Z,0.00
2018-12-10T01:38:40.041Z,0.00
2018-12-10T01:39:40.074Z,0.00
2018-12-10T01:40:40.109Z,0.00
2018-12-10T01:41:40.151Z,0.00
2018-12-10T01:42:40.188Z,0.00
2018-12-10T01:43:40.218Z,0.00
2018-12-10T01:44:40.254Z,0.00
2018-12-10T01:45:40.307Z,0.00
2018-12-10T01:46:40.325Z,0.00
2018-12-10T01:47:40.363Z,0.00
2018-12-10T01:48:40.400Z,0.00
2018-12-10T01:49:40.450Z,0.00
2018-12-10T01:50:40.471Z,0.00
2018-12-10T01:51:40.509Z,0.00
2018-12-10T01:52:40.543Z,0.00
2018-12-10T01:53:40.578Z,0.00
2018-12-10T01:54:40.617Z,0.00
2018-12-10T01:55:40.656Z,0.00
2018-12-10T01:56:40.688Z,0.00
2018-12-10T01:57:40.723Z,0.00
2018-12-10T01:58:40.760Z,0.00
2018-12-10T01:59:40.796Z,0.00
2018-12-10T02:00:40.892Z,0.00
2018-12-10T02:01:40.873Z,0.00
2018-12-10T02:02:40.923Z,0.00
2018-12-10T02:03:40.941Z,0.00
2018-12-10T02:04:40.975Z,0.00
2018-12-10T02:05:41.013Z,0.00
2018-12-10T02:06:41.046Z,0.00
2018-12-10T02:07:41.083Z,0.00
2018-12-10T02:08:41.120Z,0.00
2018-12-10T02:09:41.155Z,0.00
2018-12-10T02:10:41.190Z,0.00
2018-12-10T02:11:41.226Z,0.00
2018-12-10T02:12:41.266Z,0.00
2018-12-10T02:13:41.302Z,0.00
2018-12-10T02:14:41.337Z,0.00
2018-12-10T02:15:41.375Z,0.00
2018-12-10T02:16:41.414Z,0.00
2018-12-10T02:17:41.445Z,0.00
2018-12-10T02:18:41.489Z,0.00
2018-12-10T02:19:41.557Z,0.00
2018-12-10T02:20:41.551Z,0.00
2018-12-10T02:21:41.586Z,0.00
2018-12-10T02:22:41.623Z,0.00
2018-12-10T02:23:41.660Z,0.00
2018-12-10T02:24:41.693Z,0.00
2018-12-10T02:25:41.730Z,0.00
2018-12-10T02:26:41.769Z,0.00
2018-12-10T02:27:41.804Z,0.00
2018-12-10T02:28:41.903Z,0.00
2018-12-10T02:29:41.873Z,0.00
2018-12-10T02:30:41.909Z,0.00
2018-12-10T02:31:41.946Z,0.00
2018-12-10T02:32:41.980Z,0.00
2018-12-10T02:33:42.025Z,0.00
2018-12-10T02:34:42.052Z,0.00
2018-12-10T02:35:42.095Z,0.00
2018-12-10T02:36:42.123Z,0.00
2018-12-10T02:37:42.159Z,0.00
2018-12-10T02:38:42.196Z,0.00
2018-12-10T02:39:42.231Z,0.00
2018-12-10T02:40:42.268Z,0.00
2018-12-10T02:41:42.300Z,0.00
2018-12-10T02:42:42.490Z,0.00
2018-12-10T02:43:42.375Z,0.00
2018-12-10T02:44:42.410Z,0.00
2018-12-10T02:45:42.448Z,0.00
2018-12-10T02:46:42.481Z,0.00
2018-12-10T02:47:42.518Z,0.00
2018-12-10T02:48:42.553Z,0.00
2018-12-10T02:49:42.592Z,0.00
2018-12-10T02:50:42.625Z,0.00
2018-12-10T02:51:42.665Z,0.00
2018-12-10T02:52:42.698Z,0.00
2018-12-10T02:53:42.739Z,0.00
2018-12-10T02:54:42.771Z,0.00
2018-12-10T02:55:42.805Z,0.00
2018-12-10T02:56:42.848Z,0.00
2018-12-10T02:57:42.877Z,0.00
2018-12-10T02:58:42.915Z,0.00
2018-12-10T02:59:42.950Z,0.00
2018-12-10T03:00:42.984Z,0.00
2018-12-10T03:01:43.021Z,0.00
2018-12-10T03:02:43.058Z,0.00
2018-12-10T03:03:43.093Z,0.00
2018-12-10T03:04:43.130Z,0.00
2018-12-10T03:05:43.165Z,0.00
2018-12-10T03:06:43.199Z,0.00
2018-12-10T03:07:43.240Z,0.00
2018-12-10T03:08:43.274Z,0.00
2018-12-10T03:09:43.312Z,0.00
2018-12-10T03:10:43.350Z,0.00
2018-12-10T03:11:43.398Z,0.00
2018-12-10T03:12:43.476Z,0.00
2018-12-10T03:13:43.643Z,0.00
2018-12-10T03:14:43.498Z,0.00
2018-12-10T03:15:43.527Z,0.00
2018-12-10T03:16:43.556Z,0.00
2018-12-10T03:17:43.593Z,0.00
2018-12-10T03:18:43.629Z,0.00
2018-12-10T03:19:43.665Z,0.00
2018-12-10T03:20:43.718Z,0.00
2018-12-10T03:21:43.737Z,0.00
2018-12-10T03:22:43.778Z,0.00
2018-12-10T03:23:43.910Z,0.00
2018-12-10T03:24:44.009Z,0.00
2018-12-10T03:25:43.878Z,0.00
2018-12-10T03:26:43.981Z,0.00
2018-12-10T03:27:43.955Z,0.00
2018-12-10T03:28:43.985Z,0.00
2018-12-10T03:29:44.024Z,0.00
2018-12-10T03:30:44.061Z,0.00
2018-12-10T03:31:44.097Z,0.00
2018-12-10T03:32:44.131Z,0.00
2018-12-10T03:33:44.169Z,0.00
2018-12-10T03:34:44.208Z,0.00
2018-12-10T03:35:44.240Z,0.00
2018-12-10T03:36:44.277Z,0.00
2018-12-10T03:37:44.316Z,0.00
2018-12-10T03:38:44.353Z,0.00
2018-12-10T03:39:44.379Z,0.00
2018-12-10T03:40:44.419Z,0.00
2018-12-10T03:41:44.455Z,0.00
2018-12-10T03:42:44.501Z,0.00
2018-12-10T03:43:44.672Z,0.00
2018-12-10T03:44:44.557Z,0.00
2018-12-10T03:45:44.599Z,0.00
2018-12-10T03:46:44.629Z,0.00
2018-12-10T03:47:44.665Z,0.00
2018-12-10T03:48:44.698Z,0.00
2018-12-10T03:49:44.733Z,0.00
2018-12-10T03:50:44.770Z,0.00
2018-12-10T03:51:44.806Z,0.00
2018-12-10T03:52:44.843Z,0.00
2018-12-10T03:53:44.878Z,0.00
2018-12-10T03:54:44.914Z,0.00
2018-12-10T03:55:44.951Z,0.00
2018-12-10T03:56:44.995Z,0.00
2018-12-10T03:57:45.019Z,0.00
2018-12-10T03:58:45.056Z,0.00
2018-12-10T03:59:45.091Z,0.00
2018-12-10T04:00:45.137Z,0.00
2018-12-10T04:01:45.162Z,0.00
2018-12-10T04:02:45.199Z,0.00
2018-12-10T04:03:45.238Z,0.00
2018-12-10T04:04:45.270Z,0.00
2018-12-10T04:05:45.308Z,0.00
2018-12-10T04:06:45.341Z,0.00
2018-12-10T04:07:45.374Z,0.00
2018-12-10T04:08:45.412Z,0.00
2018-12-10T04:09:45.447Z,0.00
2018-12-10T04:10:45.487Z,0.00
2018-12-10T04:11:45.519Z,0.00
2018-12-10T04:12:45.560Z,0.00
2018-12-10T04:13:45.589Z,0.00
2018-12-10T04:14:45.629Z,0.00
2018-12-10T04:15:45.673Z,0.00
2018-12-10T04:16:45.696Z,0.00
2018-12-10T04:17:45.739Z,0.00
2018-12-10T04:18:45.770Z,0.00
2018-12-10T04:19:45.823Z,0.00
2018-12-10T04:20:45.838Z,0.00
2018-12-10T04:21:45.876Z,0.00
2018-12-10T04:22:45.911Z,0.00
2018-12-10T04:23:45.944Z,0.00
2018-12-10T04:24:45.982Z,0.00
2018-12-10T04:25:46.018Z,0.00
2018-12-10T04:26:46.058Z,0.00
2018-12-10T04:27:46.090Z,0.00
2018-12-10T04:28:46.124Z,0.00
2018-12-10T04:29:46.159Z,0.00
2018-12-10T04:30:46.197Z,0.00
2018-12-10T04:31:46.242Z,0.00
2018-12-10T04:32:46.267Z,0.00
2018-12-10T04:33:46.301Z,0.00
2018-12-10T04:34:46.337Z,0.00
2018-12-10T04:35:46.374Z,0.00
2018-12-10T04:36:46.406Z,0.00
2018-12-10T04:37:46.445Z,0.00
2018-12-10T04:38:46.481Z,0.00
2018-12-10T04:39:46.518Z,0.00
2018-12-10T04:40:46.554Z,0.00
2018-12-10T04:41:46.586Z,0.00
2018-12-10T04:42:46.624Z,0.00
2018-12-10T04:43:46.669Z,0.00
2018-12-10T04:44:46.696Z,0.00
2018-12-10T04:45:46.730Z,0.00
2018-12-10T04:46:46.765Z,0.00
2018-12-10T04:47:46.808Z,0.00
2018-12-10T04:48:46.840Z,0.00
2018-12-10T04:49:46.878Z,0.00
2018-12-10T04:50:46.907Z,0.00
2018-12-10T04:51:46.946Z,0.00
2018-12-10T04:52:46.979Z,0.00
2018-12-10T04:53:47.015Z,0.00
2018-12-10T04:54:47.055Z,0.00
2018-12-10T04:55:47.088Z,0.00
2018-12-10T04:56:47.126Z,0.00
2018-12-10T04:57:47.168Z,0.00
2018-12-10T04:58:47.195Z,0.00
2018-12-10T04:59:52.722Z,0.00
2018-12-10T05:00:47.268Z,0.00
2018-12-10T05:01:47.309Z,0.00
2018-12-10T05:02:47.338Z,0.00
2018-12-10T05:03:47.374Z,0.00
2018-12-10T05:04:47.410Z,0.00
2018-12-10T05:05:47.442Z,0.00
2018-12-10T05:06:47.489Z,0.00
2018-12-10T05:07:47.516Z,0.00
2018-12-10T05:08:47.560Z,0.00
2018-12-10T05:09:47.588Z,0.00
2018-12-10T05:10:47.624Z,0.00
2018-12-10T05:11:47.660Z,0.00
2018-12-10T05:12:47.693Z,0.00
2018-12-10T05:13:47.732Z,0.00
2018-12-10T05:14:47.767Z,0.00
2018-12-10T05:15:47.804Z,0.00
2018-12-10T05:16:47.839Z,0.00
2018-12-10T05:17:47.874Z,0.00
2018-12-10T05:18:47.913Z,0.00
2018-12-10T05:19:47.948Z,0.00
2018-12-10T05:20:47.981Z,0.00
2018-12-10T05:21:48.033Z,0.00
2018-12-10T05:22:48.057Z,0.00
2018-12-10T05:23:48.092Z,0.00
2018-12-10T05:24:48.133Z,0.00
2018-12-10T05:25:48.161Z,0.00
2018-12-10T05:26:48.197Z,0.00
2018-12-10T05:27:48.234Z,0.00
2018-12-10T05:28:48.268Z,0.00
2018-12-10T05:29:48.308Z,0.00
2018-12-10T05:30:48.340Z,0.00
2018-12-10T05:31:48.376Z,0.00
2018-12-10T05:32:48.412Z,0.00
2018-12-10T05:33:48.447Z,0.00
2018-12-10T05:34:48.484Z,0.00
2018-12-10T05:35:48.521Z,0.00
2018-12-10T05:36:48.556Z,0.00
2018-12-10T05:37:48.593Z,0.00
2018-12-10T05:38:48.630Z,0.00
2018-12-10T05:39:48.673Z,0.00
2018-12-10T05:40:48.701Z,0.00
2018-12-10T05:41:48.748Z,0.00
2018-12-10T05:42:48.772Z,0.00
2018-12-10T05:43:48.807Z,0.00
2018-12-10T05:44:48.842Z,0.00
2018-12-10T05:45:48.886Z,0.00
2018-12-10T05:46:48.917Z,0.00
2018-12-10T05:47:48.955Z,0.00
2018-12-10T05:48:48.991Z,0.00
2018-12-10T05:49:49.027Z,0.00
2018-12-10T05:50:49.060Z,0.00
2018-12-10T05:51:49.096Z,0.00
2018-12-10T05:52:50.567Z,0.00
2018-12-10T05:53:49.167Z,0.00
2018-12-10T05:54:49.201Z,0.00
2018-12-10T05:55:49.240Z,0.00
2018-12-10T05:56:49.272Z,0.00
2018-12-10T05:57:49.308Z,0.00
2018-12-10T05:58:49.351Z,0.00
2018-12-10T05:59:49.382Z,0.00
2018-12-10T06:00:49.416Z,0.00
2018-12-10T06:01:49.451Z,0.00
2018-12-10T06:02:49.488Z,0.00
2018-12-10T06:03:49.536Z,0.00
2018-12-10T06:04:49.558Z,0.00
2018-12-10T06:05:49.596Z,0.00
2018-12-10T06:06:49.782Z,0.00
2018-12-10T06:07:49.670Z,0.00
2018-12-10T06:08:49.711Z,0.00
2018-12-10T06:09:51.207Z,0.00
2018-12-10T06:10:49.779Z,0.00
2018-12-10T06:11:49.814Z,0.00
2018-12-10T06:12:49.850Z,0.00
2018-12-10T06:13:49.890Z,0.00
2018-12-10T06:14:49.930Z,0.00
2018-12-10T06:15:49.968Z,0.00
2018-12-10T06:16:49.994Z,0.00
2018-12-10T06:17:50.034Z,0.00
2018-12-10T06:18:50.064Z,0.00
2018-12-10T06:19:50.100Z,0.00
2018-12-10T06:20:50.135Z,0.00
2018-12-10T06:21:50.174Z,0.00
2018-12-10T06:22:50.209Z,0.00
2018-12-10T06:23:50.245Z,0.00
2018-12-10T06:24:50.280Z,0.00
2018-12-10T06:25:50.317Z,0.00
2018-12-10T06:26:50.354Z,0.00
2018-12-10T06:27:50.397Z,0.00
2018-12-10T06:28:50.464Z,0.00
2018-12-10T06:29:50.459Z,0.00
2018-12-10T06:30:50.503Z,0.00
2018-12-10T06:31:50.536Z,0.00
2018-12-10T06:32:50.570Z,0.00
2018-12-10T06:33:50.609Z,0.00
2018-12-10T06:34:50.639Z,0.00
2018-12-10T06:35:50.676Z,0.00
2018-12-10T06:36:50.714Z,0.00
2018-12-10T06:37:50.750Z,0.00
2018-12-10T06:38:50.783Z,4.00
2018-12-10T06:39:50.821Z,4.00
2018-12-10T06:40:50.860Z,4.00
2018-12-10T06:41:50.893Z,4.00
2018-12-10T06:42:50.928Z,0.00
2018-12-10T06:43:50.965Z,4.00
2018-12-10T06:44:51.000Z,4.00
2018-12-10T06:45:51.037Z,8.00
2018-12-10T06:46:51.076Z,4.00
2018-12-10T06:47:51.107Z,8.00
2018-12-10T06:48:51.144Z,4.00
2018-12-10T06:49:51.185Z,8.00
2018-12-10T06:50:51.216Z,8.00
2018-12-10T06:51:51.254Z,8.00
2018-12-10T06:52:51.290Z,12.00
2018-12-10T06:53:51.330Z,12.00
2018-12-10T06:54:51.361Z,20.00
2018-12-10T06:55:51.398Z,28.00
2018-12-10T06:56:51.440Z,32.00
2018-12-10T06:57:51.471Z,36.00
2018-12-10T06:58:51.506Z,44.00
2018-12-10T06:59:51.543Z,44.00
2018-12-10T07:00:51.576Z,44.00
2018-12-10T07:01:51.613Z,52.00
2018-12-10T07:02:51.650Z,52.00
2018-12-10T07:03:51.686Z,52.00
2018-12-10T07:04:51.720Z,48.00
2018-12-10T07:05:51.759Z,40.00
2018-12-10T07:06:51.796Z,36.00
2018-12-10T07:07:51.948Z,36.00
2018-12-10T07:08:51.882Z,40.00
2018-12-10T07:09:51.903Z,48.00
2018-12-10T07:10:51.937Z,52.00
2018-12-10T07:11:52.074Z,48.00
2018-12-10T07:12:52.010Z,60.00
2018-12-10T07:13:52.055Z,64.00
2018-12-10T07:14:52.082Z,72.00
2018-12-10T07:15:52.122Z,80.00
2018-12-10T07:16:52.155Z,96.00
2018-12-10T07:17:52.191Z,92.00
2018-12-10T07:18:52.227Z,84.00
2018-12-10T07:19:52.265Z,88.00
2018-12-10T07:20:52.301Z,100.00
2018-12-10T07:21:52.340Z,100.00
2018-12-10T07:22:52.372Z,112.00
2018-12-10T07:23:52.410Z,96.00
2018-12-10T07:24:52.450Z,100.00
2018-12-10T07:25:52.480Z,108.00
2018-12-10T07:26:52.526Z,112.00
2018-12-10T07:27:52.563Z,116.00
2018-12-10T07:28:52.592Z,116.00
2018-12-10T07:29:52.626Z,120.00
2018-12-10T07:30:52.670Z,116.00
2018-12-10T07:31:52.700Z,132.00
2018-12-10T07:32:52.735Z,144.00
2018-12-10T07:33:52.770Z,152.00
2018-12-10T07:34:52.808Z,168.00
2018-12-10T07:35:52.854Z,192.00
2018-12-10T07:36:52.879Z,184.00
2018-12-10T07:37:52.915Z,204.00
2018-12-10T07:38:52.966Z,284.00
2018-12-10T07:39:52.989Z,456.00
2018-12-10T07:40:53.023Z,544.00
2018-12-10T07:41:53.061Z,520.00
2018-12-10T07:42:53.097Z,564.00
2018-12-10T07:43:53.133Z,652.00
2018-12-10T07:44:53.172Z,716.00
2018-12-10T07:45:53.204Z,756.00
2018-12-10T07:46:53.241Z,808.00
2018-12-10T07:47:53.333Z,832.00
2018-12-10T07:48:53.315Z,848.00
2018-12-10T07:49:53.351Z,836.00
2018-12-10T07:50:53.388Z,904.00
2018-12-10T07:51:53.422Z,892.00
2018-12-10T07:52:53.457Z,988.00
2018-12-10T07:53:53.493Z,1064.00
2018-12-10T07:54:53.579Z,1132.00
2018-12-10T07:55:53.566Z,1180.00
2018-12-10T07:56:53.600Z,1320.00
2018-12-10T07:57:53.637Z,1272.00
2018-12-10T07:58:53.675Z,1152.00
2018-12-10T07:59:53.711Z,1040.00
2018-12-10T08:00:53.754Z,932.00
2018-12-10T08:01:53.781Z,1144.00
2018-12-10T08:02:53.819Z,1180.00
2018-12-10T08:03:53.864Z,1252.00
2018-12-10T08:04:53.889Z,1168.00
2018-12-10T08:05:53.925Z,816.00
2018-12-10T08:06:53.962Z,960.00
2018-12-10T08:07:53.998Z,1400.00
2018-12-10T08:08:54.035Z,1668.00
2018-12-10T08:09:54.084Z,1724.00
2018-12-10T08:10:54.105Z,1692.00
2018-12-10T08:11:54.142Z,1772.00
2018-12-10T08:12:54.190Z,1804.00
2018-12-10T08:13:54.214Z,1888.00
2018-12-10T08:14:54.249Z,1872.00
2018-12-10T08:15:54.300Z,1800.00
2018-12-10T08:16:54.324Z,1828.00
2018-12-10T08:17:54.359Z,1820.00
2018-12-10T08:18:54.396Z,1700.00
2018-12-10T08:19:54.562Z,1316.00
2018-12-10T08:21:01.988Z,1364.00
2018-12-10T08:21:54.510Z,1268.00
2018-12-10T08:22:54.546Z,812.00
2018-12-10T08:23:54.576Z,688.00
2018-12-10T08:24:54.610Z,680.00
2018-12-10T08:25:54.646Z,928.00
2018-12-10T08:26:54.693Z,900.00
2018-12-10T08:27:54.828Z,912.00
2018-12-10T08:29:00.050Z,1052.00
2018-12-10T08:29:54.795Z,1048.00
2018-12-10T08:30:54.828Z,1268.00
2018-12-10T08:31:54.915Z,892.00
2018-12-10T08:32:54.900Z,816.00
2018-12-10T08:33:54.939Z,828.00
2018-12-10T08:34:54.974Z,956.00
2018-12-10T08:35:55.010Z,1196.00
2018-12-10T08:36:55.709Z,1416.00
2018-12-10T08:37:55.080Z,1624.00
2018-12-10T08:38:55.119Z,1756.00
2018-12-10T08:39:55.155Z,1368.00
2018-12-10T08:40:55.193Z,968.00
2018-12-10T08:41:55.231Z,856.00
2018-12-10T08:42:55.266Z,948.00
2018-12-10T08:43:55.299Z,1112.00
2018-12-10T08:44:55.335Z,1000.00
2018-12-10T08:45:55.373Z,820.00
2018-12-10T08:46:55.410Z,760.00
2018-12-10T08:47:55.494Z,836.00
2018-12-10T08:48:55.480Z,992.00
2018-12-10T08:49:55.517Z,1056.00
2018-12-10T08:50:55.555Z,1112.00
2018-12-10T08:51:55.594Z,1176.00
2018-12-10T08:52:55.625Z,1348.00
2018-12-10T08:53:55.660Z,1544.00
2018-12-10T08:54:55.698Z,1672.00
2018-12-10T08:55:55.739Z,1708.00
2018-12-10T08:56:55.775Z,1544.00
2018-12-10T08:57:55.809Z,1760.00
2018-12-10T08:58:55.950Z,1412.00
2018-12-10T08:59:55.886Z,1348.00
2018-12-10T09:00:56.063Z,1360.00
2018-12-10T09:01:55.954Z,1288.00
2018-12-10T09:02:55.990Z,1488.00
2018-12-10T09:03:56.023Z,1636.00
2018-12-10T09:04:56.060Z,1876.00
2018-12-10T09:05:56.099Z,2180.00
2018-12-10T09:06:56.191Z,2184.00
2018-12-10T09:07:56.177Z,2248.00
2018-12-10T09:08:56.213Z,2164.00
2018-12-10T09:09:56.246Z,2244.00
2018-12-10T09:10:56.280Z,2452.00
2018-12-10T09:11:56.327Z,2472.00
2018-12-10T09:12:56.354Z,2376.00
2018-12-10T09:13:56.390Z,1820.00
2018-12-10T09:14:56.430Z,1736.00
2018-12-10T09:15:56.471Z,2156.00
2018-12-10T09:16:56.497Z,2288.00
2018-12-10T09:17:56.534Z,2048.00
2018-12-10T09:18:56.570Z,2396.00
2018-12-10T09:19:56.609Z,3312.00
2018-12-10T09:20:56.642Z,4184.00
2018-12-10T09:21:56.689Z,4284.00
2018-12-10T09:22:56.722Z,3824.00
2018-12-10T09:23:56.752Z,4140.00
2018-12-10T09:24:56.789Z,3888.00
2018-12-10T09:25:56.827Z,3992.00
2018-12-10T09:26:56.863Z,4332.00
2018-12-10T09:27:56.908Z,3964.00
2018-12-10T09:28:56.934Z,4720.00
2018-12-10T09:29:56.975Z,5356.00
2018-12-10T09:30:57.071Z,5092.00
2018-12-10T09:31:57.044Z,5244.00
2018-12-10T09:32:57.078Z,5616.00
2018-12-10T09:33:57.116Z,5152.00
2018-12-10T09:34:57.153Z,3656.00
2018-12-10T09:35:57.190Z,3448.00
2018-12-10T09:36:57.227Z,3364.00
2018-12-10T09:37:57.263Z,3548.00
2018-12-10T09:38:57.299Z,3988.00
2018-12-10T09:39:57.336Z,4116.00
2018-12-10T09:40:57.369Z,2924.00
2018-12-10T09:41:57.411Z,2156.00
2018-12-10T09:42:57.447Z,2068.00
2018-12-10T09:43:57.482Z,1792.00
2018-12-10T09:44:57.518Z,2072.00
2018-12-10T09:45:57.561Z,3080.00
2018-12-10T09:46:59.090Z,3096.00
2018-12-10T09:47:57.627Z,3044.00
2018-12-10T09:48:57.663Z,2328.00
2018-12-10T09:49:57.715Z,1652.00
2018-12-10T09:50:57.736Z,1384.00
2018-12-10T09:51:57.774Z,1396.00
2018-12-10T09:52:57.826Z,1648.00
2018-12-10T09:53:57.846Z,2292.00
2018-12-10T09:54:57.881Z,2568.00
2018-12-10T09:55:57.918Z,3168.00
2018-12-10T09:56:57.955Z,3836.00
2018-12-10T09:57:58.174Z,3844.00
2018-12-10T09:58:58.037Z,3948.00
2018-12-10T09:59:58.066Z,3600.00
2018-12-10T10:00:58.102Z,3104.00
2018-12-10T10:01:58.139Z,3052.00
2018-12-10T10:02:58.176Z,3320.00
2018-12-10T10:03:58.311Z,4424.00
2018-12-10T10:04:58.255Z,5228.00
2018-12-10T10:05:58.284Z,4964.00
2018-12-10T10:06:58.320Z,5200.00
2018-12-10T10:07:58.358Z,5772.00
2018-12-10T10:08:58.394Z,5232.00
2018-12-10T10:09:58.438Z,3572.00
2018-12-10T10:10:58.471Z,3912.00
2018-12-10T10:11:58.518Z,4124.00
2018-12-10T10:12:58.543Z,3952.00
2018-12-10T10:13:58.577Z,3520.00
2018-12-10T10:14:58.616Z,3148.00
2018-12-10T10:15:58.654Z,2928.00
2018-12-10T10:16:58.692Z,2788.00
2018-12-10T10:17:59.039Z,2836.00
2018-12-10T10:18:58.763Z,3256.00
2018-12-10T10:19:58.867Z,3052.00
2018-12-10T10:20:58.836Z,2856.00
2018-12-10T10:21:58.873Z,2780.00
2018-12-10T10:22:58.908Z,2804.00
2018-12-10T10:23:59.608Z,3208.00
2018-12-10T10:24:58.982Z,3648.00
2018-12-10T10:25:59.020Z,3584.00
2018-12-10T10:26:59.055Z,3700.00
2018-12-10T10:27:59.093Z,4028.00
2018-12-10T10:28:59.130Z,3764.00
2018-12-10T10:29:59.165Z,3160.00
2018-12-10T10:30:59.202Z,2840.00
2018-12-10T10:31:59.241Z,3196.00
2018-12-10T10:32:59.276Z,3952.00
2018-12-10T10:33:59.311Z,4352.00
2018-12-10T10:34:59.356Z,5040.00
2018-12-10T10:35:59.393Z,5972.00
2018-12-10T10:36:59.423Z,6316.00
2018-12-10T10:37:59.460Z,5944.00
2018-12-10T10:38:59.497Z,5676.00
2018-12-10T10:39:59.584Z,5392.00
2018-12-10T10:40:59.597Z,5184.00
2018-12-10T10:41:59.611Z,4612.00
2018-12-10T10:42:59.656Z,4324.00
2018-12-10T10:43:59.683Z,4356.00
2018-12-10T10:44:59.718Z,4716.00
2018-12-10T10:45:59.759Z,5412.00
2018-12-10T10:46:59.792Z,5544.00
2018-12-10T10:47:59.852Z,5076.00
2018-12-10T10:48:59.864Z,4496.00
2018-12-10T10:49:59.902Z,4828.00
2018-12-10T10:51:00.280Z,5880.00
2018-12-10T10:51:59.977Z,5928.00
2018-12-10T10:53:00.013Z,5608.00
2018-12-10T10:54:00.048Z,5736.00
2018-12-10T10:55:00.086Z,7112.00
2018-12-10T10:56:00.123Z,7480.00
2018-12-10T10:57:00.159Z,7872.00
2018-12-10T10:58:00.195Z,7284.00
2018-12-10T10:59:00.234Z,6924.00
2018-12-10T11:00:00.270Z,5480.00
2018-12-10T11:01:00.306Z,4484.00
2018-12-10T11:02:00.344Z,4848.00
2018-12-10T11:03:00.381Z,6920.00
2018-12-10T11:04:00.418Z,4780.00
2018-12-10T11:05:00.462Z,3772.00
2018-12-10T11:06:00.504Z,2816.00
2018-12-10T11:07:00.532Z,2984.00
2018-12-10T11:08:00.568Z,4260.00
2018-12-10T11:09:00.618Z,4456.00
2018-12-10T11:10:00.646Z,4504.00
2018-12-10T11:11:00.679Z,4704.00
2018-12-10T11:12:00.719Z,3628.00
2018-12-10T11:13:00.767Z,3228.00
2018-12-10T11:14:00.789Z,4096.00
2018-12-10T11:15:00.825Z,4324.00
2018-12-10T11:16:00.864Z,3548.00
2018-12-10T11:17:00.912Z,2796.00
2018-12-10T11:18:00.938Z,2384.00
2018-12-10T11:19:00.978Z,2308.00
2018-12-10T11:20:01.022Z,2776.00
2018-12-10T11:21:01.051Z,3036.00
2018-12-10T11:22:01.274Z,2552.00
2018-12-10T11:23:01.127Z,2856.00
2018-12-10T11:24:01.161Z,3288.00
2018-12-10T11:25:01.197Z,2828.00
2018-12-10T11:26:01.240Z,2360.00
2018-12-10T11:27:01.272Z,2520.00
2018-12-10T11:28:01.309Z,2440.00
2018-12-10T11:29:01.345Z,2308.00
2018-12-10T11:30:01.382Z,2588.00
2018-12-10T11:31:01.419Z,3204.00
2018-12-10T11:32:01.457Z,4192.00
2018-12-10T11:33:01.493Z,3776.00
2018-12-10T11:34:01.532Z,2724.00
2018-12-10T11:35:01.578Z,2616.00
2018-12-10T11:36:01.606Z,3464.00
2018-12-10T11:37:01.642Z,4292.00
2018-12-10T11:38:01.678Z,4344.00
2018-12-10T11:39:01.716Z,4268.00
2018-12-10T11:40:01.755Z,4016.00
2018-12-10T11:41:01.790Z,4968.00
2018-12-10T11:42:01.863Z,4720.00
2018-12-10T11:43:01.866Z,3476.00
2018-12-10T11:44:01.908Z,3036.00
2018-12-10T11:45:01.937Z,3456.00
2018-12-10T11:46:01.994Z,3544.00
2018-12-10T11:47:02.014Z,3432.00
2018-12-10T11:48:02.049Z,3752.00
2018-12-10T11:49:02.093Z,3728.00
2018-12-10T11:50:02.132Z,4144.00
2018-12-10T11:51:02.169Z,3676.00
2018-12-10T11:52:02.199Z,2972.00
2018-12-10T11:53:02.235Z,2968.00
2018-12-10T11:54:03.862Z,2520.00
2018-12-10T11:55:02.312Z,3056.00
2018-12-10T11:56:02.356Z,4788.00
2018-12-10T11:57:02.389Z,5244.00
2018-12-10T11:58:02.422Z,4180.00
2018-12-10T11:59:02.459Z,4684.00
2018-12-10T12:00:02.497Z,4880.00
2018-12-10T12:01:02.533Z,3824.00
2018-12-10T12:02:02.568Z,4764.00
2018-12-10T12:03:02.607Z,5236.00
2018-12-10T12:04:02.645Z,5464.00
2018-12-10T12:05:02.680Z,4160.00
2018-12-10T12:06:02.717Z,3040.00
2018-12-10T12:07:02.756Z,3304.00
2018-12-10T12:08:02.794Z,3304.00
2018-12-10T12:09:02.838Z,3576.00
2018-12-10T12:10:02.870Z,3792.00
2018-12-10T12:11:02.905Z,3408.00
2018-12-10T12:12:02.943Z,3564.00
2018-12-10T12:13:02.977Z,3528.00
2018-12-10T12:14:03.014Z,3740.00
2018-12-10T12:15:03.053Z,3844.00
2018-12-10T12:16:03.089Z,4528.00
2018-12-10T12:17:03.126Z,5212.00
2018-12-10T12:18:03.169Z,4300.00
2018-12-10T12:19:11.054Z,3928.00
2018-12-10T12:20:03.243Z,3756.00
2018-12-10T12:21:03.274Z,3184.00
2018-12-10T12:22:05.186Z,2828.00
2018-12-10T12:23:03.503Z,2472.00
2018-12-10T12:24:03.388Z,2080.00
2018-12-10T12:25:03.429Z,1928.00
2018-12-10T12:26:03.463Z,2068.00
2018-12-10T12:27:03.497Z,2276.00
2018-12-10T12:28:03.546Z,2556.00
2018-12-10T12:29:03.572Z,3112.00
2018-12-10T12:30:03.615Z,3432.00
2018-12-10T12:31:03.646Z,2520.00
2018-12-10T12:32:03.690Z,1972.00
2018-12-10T12:33:03.717Z,1880.00
2018-12-10T12:34:03.768Z,1916.00
2018-12-10T12:35:03.802Z,1928.00
2018-12-10T12:36:03.830Z,1416.00
2018-12-10T12:37:03.865Z,1120.00
2018-12-10T12:38:04.029Z,1296.00
2018-12-10T12:39:03.944Z,1468.00
2018-12-10T12:40:03.980Z,1576.00
2018-12-10T12:41:04.016Z,1608.00
2018-12-10T12:42:04.061Z,1404.00
2018-12-10T12:43:08.561Z,1612.00
2018-12-10T12:44:04.128Z,2632.00
2018-12-10T12:45:04.166Z,2524.00
2018-12-10T12:46:04.335Z,1952.00
2018-12-10T12:47:04.238Z,1828.00